Terminal Aerodrome Forecast
Issued by NWS

Home | Current Version | Previous Version | Text Only | Print | Product List | Glossary On
Versions: 1 2 3 4 5 6 7 8 9 10 11 12 13 14 15 16 17 18 19 20 21
000
FTUS41 KBTV 181741
TAFSLK
TAF
KSLK 181741Z 1818/1918 24008KT P6SM SCT035
     FM182200 22006KT P6SM VCSH SCT035
     FM190100 21005KT P6SM SCT015
     FM190700 22006KT 2SM BR BKN008
     FM191400 23007KT P6SM BKN015
     FM191500 23008G14KT P6SM BKN020=

USA.gov is the U.S. government's official web portal to all federal, state and local government web resources and services.